Atlantis — KAQP — position and weather

sailwx.info

Track history (hours):
 
Tides and Currents Weather Stations Pressure Air Temp Water Temp Dewpoint Dewpoint Depression Visibility Wind Speed Wind Dir Waves Ship Positions

Oceanographic research ship Atlantis (USA)

Ship's website: http://www.whoi.edu/page.do?pid=8143

Detailed information on ship capabilities available from University of Delaware's Ocean Information Center.

Owner: WOODS HOLE OCEANOGRAPHIC INSTITUTION, WOODS HOLE, MA. More information available from US FCC via Universal Licensing System.

Last reported at 2019-Jan-14 17:00 UTC. Time now 2019-Feb-21 12:05 UTC.
Position N 38°06' W 122°18'.
Warning: this ship's position is 37 days out of date.

Type: Ship. MMSI: 367241000.

Wind from 100 at 15 knots

Barometer 1012.6 mb
Air temperature 9.9 ° C
Dewpoint 4.8 ° C

Date/timePositionNaut miles runAvg speedWind from/ knotsBaromVisibWave heightAir tempDewpointWater temp
2019-Jan-14 17:00N 38°06' W 122°18'0 0.0 100 / 151012.6 9.9 4.8
2019-Jan-14 16:00N 38°06' W 122°18'0 0.0 100 / 171012.5 9.3 5.6
2019-Jan-14 15:00N 38°06' W 122°18'0 0.0 090 / 151012.3 9.6 5.5
2019-Jan-14 14:00N 38°06' W 122°18'0 0.0 110 / 121012.3 10.3 5.5
2019-Jan-14 13:00N 38°06' W 122°18'0 0.0 110 / 91012.4 10.5 5.8
2019-Jan-14 12:00N 38°06' W 122°18'0 0.0 100 / 121013.0 11.4 5.3
2019-Jan-14 11:00N 38°06' W 122°18'0 0.0 130 / 61013.7 11.4 5.0
2019-Jan-14 10:00N 38°06' W 122°18'0 0.0 110 / 111013.6 10.6 5.5
2019-Jan-14 09:00N 38°06' W 122°18'0 0.0 110 / 81013.7 10.8 5.7
2019-Jan-14 08:00N 38°06' W 122°18'0 0.0 110 / 81014.3 10.8 6.5
2019-Jan-14 07:00N 38°06' W 122°18'0 0.0 100 / 101015.0 11.5 6.5
2019-Jan-14 06:00N 38°06' W 122°18'0 0.0 100 / 91015.3 11.4 6.7
2019-Jan-14 05:00N 38°06' W 122°18'0 0.0 100 / 91015.2 11.6 7.1
2019-Jan-14 04:00N 38°06' W 122°18'0 0.0 100 / 141014.8 11.9 7.2
2019-Jan-14 03:00N 38°06' W 122°18'0 0.0 110 / 91014.6 11.9 7.4
2019-Jan-14 02:00N 38°06' W 122°18'0 0.0 100 / 101014.6 12.7 7.4
2019-Jan-14 01:00N 38°06' W 122°18'0 0.0 080 / 111014.5 13.8 7.2
2019-Jan-14 00:00N 38°06' W 122°18'0 0.0 080 / 91014.7 13.9 7.3
2019-Jan-13 23:00N 38°06' W 122°18'0 0.0 100 / 171014.8 14.2 7.1
2019-Jan-13 22:00N 38°06' W 122°18'0 0.0 070 / 91014.8 14.1 6.6
2019-Jan-13 21:00N 38°06' W 122°18'0 0.0 080 / 81015.3 13.9 6.5
2019-Jan-13 20:00N 38°06' W 122°18'0 0.0 080 / 151016.2 13.3 6.9
2019-Jan-13 19:00N 38°06' W 122°18'0 0.0 130 / 71017.5 11.3 7.3
2019-Jan-13 18:00N 38°06' W 122°18'0 0.0 110 / 161017.8 10.6 6.9
2019-Jan-13 17:00N 38°06' W 122°18'0 0.0 120 / 91017.4 10.0 6.7
2019-Jan-13 16:00N 38°06' W 122°18'0 0.0 140 / 71017.0 9.0 6.4
2019-Jan-13 15:00N 38°06' W 122°18'0 0.0 130 / 81017.0 8.3 6.2
2019-Jan-13 14:00N 38°06' W 122°18'0 0.0 130 / 91017.0 9.0 6.7
2019-Jan-13 13:00N 38°06' W 122°18'0 0.0 130 / 71016.5 8.9 6.9
2019-Jan-13 12:00N 38°06' W 122°18'0 0.0 100 / 91017.0 9.0 7.1
2019-Jan-13 11:00N 38°06' W 122°18'0 0.0 120 / 31017.3 8.9 6.9
2019-Jan-13 10:00N 38°06' W 122°18'0 0.0 100 / 41017.9 9.9 7.3
2019-Jan-13 09:00N 38°06' W 122°18'0 0.0 120 / 61017.4 9.5 7.3
2019-Jan-13 08:00N 38°06' W 122°18'0 0.0 120 / 51017.2 10.0 7.6
2019-Jan-13 07:00N 38°06' W 122°18'0 0.0 120 / 31017.4 10.6 8.0
2019-Jan-13 06:00N 38°06' W 122°18'0 0.0 140 / 61017.1 10.9 7.9
2019-Jan-13 05:00N 38°06' W 122°18'0 0.0 120 / 31016.9 11.1 8.0
2019-Jan-13 04:00N 38°06' W 122°18'0 0.0 130 / 31016.7 11.7 8.4
2019-Jan-13 03:00N 38°06' W 122°18'0 0.0 170 / 41016.3 12.2 8.4
2019-Jan-13 02:00N 38°06' W 122°18'0 0.0 110 / 41016.0 12.8 8.6
2019-Jan-13 01:00N 38°06' W 122°18'0 0.0 170 / 81015.6 13.1 8.1
2019-Jan-13 00:00N 38°06' W 122°18'0 0.0 130 / 71014.8 13.8 8.0
2019-Jan-12 23:00N 38°06' W 122°18'0 0.0 100 / 111014.5 14.7 7.6
2019-Jan-12 22:00N 38°06' W 122°18'0 0.0 050 / 111014.3 14.5 8.1
2019-Jan-12 21:00N 38°06' W 122°18'0 0.0 080 / 91014.6 14.2 7.7
2019-Jan-12 20:00N 38°06' W 122°18'0 0.0 110 / 131015.0 13.3 8.2
2019-Jan-12 19:00N 38°06' W 122°18'0 0.0 110 / 91016.1 13.1 7.8
2019-Jan-12 18:00N 38°06' W 122°18'0 0.0 100 / 51016.6 12.3 7.0
2019-Jan-12 17:00N 38°06' W 122°18'0 0.0 120 / 81016.1 11.1 7.2
2019-Jan-12 16:00N 38°06' W 122°18'0 0.0 100 / 31015.3 10.4 6.9
2019-Jan-12 15:00N 38°06' W 122°18'0 0.0 120 / 101015.1 10.6 7.1
2019-Jan-12 14:00N 38°06' W 122°18'0 0.0 110 / 41014.1 10.8 7.1
2019-Jan-12 13:00N 38°06' W 122°18'0 0.0 120 / 91013.5 11.0 7.2
2019-Jan-12 12:00N 38°06' W 122°18'0 0.0 120 / 81013.6 10.6 7.1
2019-Jan-12 11:00N 38°06' W 122°18'0 0.0 130 / 81013.8 10.6 7.3
2019-Jan-12 10:00N 38°06' W 122°18'0 0.0 120 / 91013.7 10.6 7.4
2019-Jan-12 09:00N 38°06' W 122°18'0 0.0 120 / 101013.0 10.5 7.7
2019-Jan-12 08:00N 38°06' W 122°18'0 0.0 130 / 81012.4 10.6 8.0
2019-Jan-12 07:00N 38°06' W 122°18'0 0.0 120 / 51012.8 10.8 8.2
2019-Jan-12 06:00N 38°06' W 122°18'0 0.0 110 / 101012.8 10.8 8.5
2019-Jan-12 05:00N 38°06' W 122°18'0 0.0 120 / 101012.5 11.1 8.6
2019-Jan-12 04:00N 38°06' W 122°18'0 0.0 100 / 41012.1 12.2 8.2
2019-Jan-12 03:00N 38°06' W 122°18'0 0.0 130 / 81011.9 12.0 8.6
2019-Jan-12 02:00N 38°06' W 122°18'0 0.0 080 / 51012.0 12.1 8.9
2019-Jan-12 01:00N 38°06' W 122°18'0 0.0 090 / 71012.2 12.2 9.1
2019-Jan-12 00:00N 38°06' W 122°18'0 0.0 080 / 71012.2 12.4 9.0
2019-Jan-11 23:00N 38°06' W 122°18'0 0.0 060 / 51012.3 12.1 8.9
2019-Jan-11 22:00N 38°06' W 122°18'0 0.0 110 / 111012.1 12.1 8.2
2019-Jan-11 21:00N 38°06' W 122°18'0 0.0 080 / 111012.4 11.6 7.7
2019-Jan-11 20:00N 38°06' W 122°18'0 0.0 090 / 101013.6 10.3 7.5
2019-Jan-11 19:00N 38°06' W 122°18'0 0.0 110 / 121014.5 10.4 7.6
2019-Jan-11 18:00N 38°06' W 122°18'0 0.0 090 / 161015.4 10.1 7.4
2019-Jan-11 17:00N 38°06' W 122°18'0 0.0 100 / 121015.3 10.3 7.9
2019-Jan-11 16:00N 38°06' W 122°18'0 0.0 080 / 171014.9 10.7 8.1
2019-Jan-11 15:00N 38°06' W 122°18'0 0.0 100 / 131014.6 10.4 8.2
2019-Jan-11 14:00N 38°06' W 122°18'0 0.0 070 / 151015.2 10.1 8.3
2019-Jan-11 13:00N 38°06' W 122°18'0 0.0 090 / 131015.5 10.2 8.2
2019-Jan-11 12:00N 38°06' W 122°18'0 0.0 080 / 111015.8 10.3 8.2
2019-Jan-11 11:00N 38°06' W 122°18'0 0.0 080 / 121016.6 10.3 8.3
2019-Jan-11 10:00N 38°06' W 122°18'0 0.0 080 / 101017.3 10.4 8.3
2019-Jan-11 09:00N 38°06' W 122°18'0 0.0 090 / 161016.9 10.7 8.4
2019-Jan-11 08:00N 38°06' W 122°18'0 0.0 090 / 101017.2 10.6 8.4
2019-Jan-11 07:00N 38°06' W 122°18'0 0.0 090 / 101017.7 10.6 8.4
2019-Jan-11 06:00N 38°06' W 122°18'0 0.0 100 / 101018.3 10.3 8.4
2019-Jan-11 05:00N 38°06' W 122°18'0 0.0 080 / 111018.1 9.5 8.1
2019-Jan-11 04:00N 38°06' W 122°18'0 0.0 080 / 171018.2 9.7 8.3
2019-Jan-11 03:00N 38°06' W 122°18'0 0.0 080 / 191018.7 10.0 8.5
2019-Jan-11 02:00N 38°06' W 122°18'0 0.0 110 / 101019.2 10.2 8.5
2019-Jan-11 01:00N 38°06' W 122°18'0 0.0 120 / 91019.3 11.3 8.9
2019-Jan-11 00:00N 38°06' W 122°18'0 0.0 110 / 111019.7 12.2 9.4
2019-Jan-10 23:00N 38°06' W 122°18'0 0.0 140 / 71019.9 12.5 9.5
2019-Jan-10 22:00N 38°06' W 122°18'0 0.0 170 / 41019.9 12.7 9.8
2019-Jan-10 21:00N 38°06' W 122°18'0 0.0 190 / 41020.2 11.6 9.6
2019-Jan-10 20:00N 38°06' W 122°18'0 0.0 310 / 41021.3 11.2 9.4
2019-Jan-10 19:00N 38°06' W 122°18'0 0.0 320 / 21022.3 10.9 9.2
2019-Jan-10 18:00N 38°06' W 122°18'0 0.0 350 / 21023.0 10.4 9.0
2019-Jan-10 17:00N 38°06' W 122°18'0 0.0 040 / 21022.5 9.8 8.5
2019-Jan-10 16:00N 38°06' W 122°18'0 0.0 010 / 11022.4 9.1 7.8
2019-Jan-10 15:00N 38°06' W 122°18'0 0.0 070 / 71021.7 8.9 7.5
2019-Jan-10 14:00N 38°06' W 122°18'0 0.0 090 / 41021.5 10.1 8.7
2019-Jan-10 13:00N 38°06' W 122°18'0 0.0 020 / 21021.8 10.5 9.1
2019-Jan-10 12:00N 38°06' W 122°18'0 0.0 010 / 11022.3 10.5 9.1
2019-Jan-10 11:00N 38°06' W 122°18'0 0.0 140 / 51022.2 10.3 8.8
2019-Jan-10 10:00N 38°06' W 122°18'0 0.0 150 / 41022.2 10.5 8.9
2019-Jan-10 09:00N 38°06' W 122°18'0 0.0 170 / 51021.6 10.0 8.4
2019-Jan-10 08:00N 38°06' W 122°18'0 0.0 280 / 31021.7 10.7 8.8
2019-Jan-10 07:00N 38°06' W 122°18'0 0.0 130 / 21021.7 11.1 9.1
2019-Jan-10 06:00N 38°06' W 122°18'0 0.0 220 / 11022.0 12.0 9.7
2019-Jan-10 05:00N 38°06' W 122°18'0 0.0 280 / 31021.7 11.8 9.5
2019-Jan-10 04:00N 38°06' W 122°18'0 0.0 250 / 31020.5 12.4 9.9
2019-Jan-10 03:00N 38°06' W 122°18'0 0.0 210 / 21020.0 12.8 9.8
2019-Jan-10 02:00N 38°06' W 122°18'0 0.0 200 / 21019.6 13.410.0
2019-Jan-10 01:00N 38°06' W 122°18'0 0.0 160 / 51018.9 13.910.4
2019-Jan-10 00:00N 38°06' W 122°18'0 0.0 220 / 41018.2 14.710.8
2019-Jan-09 23:00N 38°06' W 122°18'0 0.0 170 / 31017.8 14.511.6
2019-Jan-09 22:00N 38°06' W 122°18'0 0.0 200 / 71017.5 14.810.8
2019-Jan-09 21:00N 38°06' W 122°18'0 0.0 190 / 31017.6 14.111.1
2019-Jan-09 20:00N 38°06' W 122°18'0 0.0 180 / 61017.7 15.610.4
2019-Jan-09 19:00N 38°06' W 122°18'0 0.0 170 / 91018.3 15.510.2
2019-Jan-09 18:00N 38°06' W 122°18'0 0.0 150 / 71018.6 14.810.1
2019-Jan-09 17:00N 38°06' W 122°18'0 0.0 130 / 41018.0 13.710.0
2019-Jan-09 16:00N 38°06' W 122°18'0 0.0 140 / 71017.1 13.6 9.7
2019-Jan-09 15:00N 38°06' W 122°18'0 0.0 140 / 81016.1 13.8 9.5
2019-Jan-09 14:00N 38°06' W 122°18'0 0.0 150 / 91015.7 14.1 9.8
2019-Jan-09 13:00N 38°06' W 122°18'0 0.0 150 / 61015.2 14.210.0
2019-Jan-09 12:00N 38°06' W 122°18'0 0.0 150 / 61014.9 14.2 9.9
2019-Jan-09 11:00N 38°06' W 122°18'0 0.0 150 / 71014.9 13.510.2
2019-Jan-09 10:00N 38°06' W 122°18'0 0.0 160 / 121014.2 13.410.0
2019-Jan-09 09:00N 38°06' W 122°18'0 0.0 180 / 111013.3 13.9 9.6
2019-Jan-09 08:00N 38°06' W 122°18'0 0.0 150 / 91012.9 15.0 8.9
2019-Jan-09 07:00N 38°06' W 122°18'0 0.0 140 / 61013.0 14.210.1
2019-Jan-09 06:00N 38°06' W 122°18'0 0.0 120 / 101013.3 12.7 9.9
2019-Jan-09 05:00N 38°06' W 122°18'0 0.0 140 / 71013.1 12.910.0
2019-Jan-09 04:00N 38°06' W 122°18'0 0.0 040 / 21013.6 11.7 9.6
2019-Jan-09 03:00N 38°06' W 122°18'0 0.0 140 / 31013.5 11.7 9.4
2019-Jan-09 02:00N 38°06' W 122°18'0 0.0 100 / 51013.6 11.4 9.2
2019-Jan-09 01:00N 38°06' W 122°18'0 0.0 100 / 81013.3 11.1 9.0
2019-Jan-09 00:00N 38°06' W 122°18'0 0.0 100 / 31013.8 11.3 9.1
2019-Jan-08 23:00N 38°06' W 122°18'0 0.0 120 / 71014.2 11.0 8.7
2019-Jan-08 22:00N 38°06' W 122°18'0 0.0 160 / 91014.6 10.8 8.4
2019-Jan-08 21:00N 38°06' W 122°18'0 0.0
2019-Jan-08 20:00N 38°06' W 122°18'0 0.0
2019-Jan-08 19:00N 38°06' W 122°18'0 0.0
2019-Jan-08 18:00N 38°06' W 122°18'0 0.0 120 / 81018.6 10.4 7.8
2019-Jan-08 17:00N 38°06' W 122°18'0 0.0 090 / 151018.2 10.0 7.2
2019-Jan-08 16:00N 38°06' W 122°18'0 0.0 100 / 131017.6 10.1 6.8
2019-Jan-08 15:00N 38°06' W 122°18'0 0.0 100 / 141017.5 10.1 6.5
2019-Jan-08 14:00N 38°06' W 122°18'0 0.0 110 / 141017.2 9.9 6.5
2019-Jan-08 13:00N 38°06' W 122°18'0 0.0 130 / 91017.2 9.8 6.5
2019-Jan-08 12:00N 38°06' W 122°18'0 0.0 100 / 151017.5 9.5 6.4
2019-Jan-08 11:00N 38°06' W 122°18'0 0.0 120 / 91018.5 9.7 6.6
2019-Jan-08 10:00N 38°06' W 122°18'0 0.0 120 / 91019.2 9.8 6.8
2019-Jan-08 09:00N 38°06' W 122°18'0 0.0 100 / 121018.8 10.0 6.9
2019-Jan-08 08:00N 38°06' W 122°18'0 0.0 100 / 151019.2 10.0 7.0
2019-Jan-08 07:00N 38°06' W 122°18'0 0.0 110 / 101020.3 10.2 7.3
2019-Jan-08 06:00N 38°06' W 122°18'0 0.0 110 / 111020.6 10.4 7.6
2019-Jan-08 05:00N 38°06' W 122°18'0 0.0 100 / 121020.7 10.9 7.9
2019-Jan-08 04:00N 38°06' W 122°18'0 0.0 110 / 101021.2 11.9 8.3
2019-Jan-08 03:00N 38°06' W 122°18'0 0.0 110 / 81021.1 12.8 8.4
2019-Jan-08 02:00N 38°06' W 122°18'0 0.0 110 / 91020.9 12.9 8.4
2019-Jan-08 01:00N 38°06' W 122°18'0 0.0 120 / 61021.2 13.3 8.9
2019-Jan-08 00:00N 38°06' W 122°18'0 0.0 090 / 51020.8 13.7 8.8
2019-Jan-07 23:00N 38°06' W 122°18'0 0.0 120 / 61020.7 13.9 8.4
2019-Jan-07 22:00N 38°06' W 122°18'0 0.0 110 / 41020.6 13.5 7.9
2019-Jan-07 21:00N 38°06' W 122°18'0 0.0 140 / 51020.3 13.0 8.1
2019-Jan-07 20:00N 38°06' W 122°18'0 0.0 010 / 21020.9 12.3 7.0
2019-Jan-07 19:00N 38°06' W 122°18'0 0.0 330 / 21022.0 11.0 7.4
2019-Jan-07 18:00N 38°06' W 122°18'0 0.0 260 / 31022.1 9.7 7.3
2019-Jan-07 17:00N 38°06' W 122°18'0 0.0 300 / 51021.6 9.0 6.8
2019-Jan-07 16:00N 38°06' W 122°18'0 0.0 270 / 31020.8 9.8 7.4
2019-Jan-07 15:00N 38°06' W 122°18'0 0.0 120 / 51020.2 9.5 7.2
2019-Jan-07 14:00N 38°06' W 122°18'0 0.0 100 / 41019.5 9.3 6.9
2019-Jan-07 13:00N 38°06' W 122°18'0 0.0 290 / 51018.6 9.6 6.9
2019-Jan-07 12:00N 38°06' W 122°18'0 0.0 020 / 21018.1 9.4 6.6
2019-Jan-07 11:00N 38°06' W 122°18'0 0.0 250 / 91017.4 10.2 6.8
2019-Jan-07 10:00N 38°06' W 122°18'0 0.0 230 / 51016.7 10.3 7.2
2019-Jan-07 09:00N 38°06' W 122°18'0 0.0 220 / 41014.7 9.6 7.4
2019-Jan-07 08:00N 38°06' W 122°18'0 0.0 260 / 51013.2 9.4 7.2
2019-Jan-07 07:00N 38°06' W 122°18'0 0.0 240 / 41011.4 9.6 7.8
2019-Jan-07 06:00N 38°06' W 122°18'0 0.0 310 / 71009.8 12.610.2
2019-Jan-07 05:00N 38°06' W 122°18'0 0.0 200 / 111007.9 13.511.5
2019-Jan-07 04:00N 38°06' W 122°18'0 0.0 180 / 111006.3 13.911.6
2019-Jan-07 03:00N 38°06' W 122°18'0 0.0 200 / 111005.6 13.611.5
2019-Jan-07 02:00N 38°06' W 122°18'0 0.0 190 / 101005.2 12.310.0
2019-Jan-07 01:00N 38°06' W 122°18'0 0.0 160 / 51004.9 10.7 8.3
2019-Jan-07 00:00N 38°06' W 122°18'0 0.0 150 / 151005.8 11.2 7.8
2019-Jan-06 23:00N 38°06' W 122°18'0 0.0 160 / 101007.2 11.0 7.8
2019-Jan-06 22:00N 38°06' W 122°18'0 0.0 170 / 101008.5 11.1 7.9
2019-Jan-06 21:00N 38°06' W 122°18'0 0.0 180 / 111008.7 11.1 7.5
2019-Jan-06 20:00N 38°06' W 122°18'0 0.0 140 / 111010.1 10.4 7.1
2019-Jan-06 19:00N 38°06' W 122°18'0 0.0 130 / 91011.6 10.5 7.3
2019-Jan-06 18:00N 38°06' W 122°18'0 0.0 130 / 51012.9 10.2 7.1
2019-Jan-06 17:00N 38°06' W 122°18'0 0.0 140 / 61012.7 10.5 6.6
2019-Jan-06 16:00N 38°06' W 122°18'0 0.0 150 / 91012.4 10.6 6.0
2019-Jan-06 15:00N 38°06' W 122°18'0 0.0 140 / 61012.3 10.9 5.9
2019-Jan-06 14:00N 38°06' W 122°18'0 0.0 120 / 91012.3 9.6 6.3
2019-Jan-06 13:00N 38°06' W 122°18'0 0.0 140 / 71012.6 9.1 6.4
2019-Jan-06 12:00N 38°06' W 122°18'0 0.0 130 / 61012.6 8.8 6.1
2019-Jan-06 11:00N 38°06' W 122°18'0 0.0 130 / 51012.8 8.2 5.9
2019-Jan-06 10:00N 38°06' W 122°18'0 0.0 140 / 41012.9 8.7 5.8
2019-Jan-06 09:00N 38°06' W 122°18'0 0.0 180 / 21012.6 8.9 5.7
2019-Jan-06 08:00N 38°06' W 122°18'0 0.0 140 / 21012.2 9.9 7.0
2019-Jan-06 07:00N 38°06' W 122°18'0 0.0 190 / 11012.2 9.9 7.1
2019-Jan-06 06:00N 38°06' W 122°18'0 0.0 180 / 31011.8 9.8 7.2
2019-Jan-06 05:00N 38°06' W 122°18'0 0.0 180 / 41011.3 10.4 7.0
2019-Jan-06 04:00N 38°06' W 122°18'0 0.0 180 / 91010.2 10.9 7.3
2019-Jan-06 03:00N 38°06' W 122°18'0 0.0 240 / 61009.3 11.1 7.1
2019-Jan-06 02:00N 38°06' W 122°18'0 0.0 210 / 61008.2 11.1 7.5
2019-Jan-06 01:00N 38°06' W 122°18'0 0.0 260 / 61006.8 11.2 7.8
2019-Jan-06 00:00N 38°06' W 122°18'0 0.0 230 / 61005.5 12.4 7.9
2019-Jan-05 23:00N 38°06' W 122°18'0 0.0 200 / 121004.0 12.6 8.7
2019-Jan-05 22:00N 38°06' W 122°18'0 0.0 200 / 101004.0 12.2 8.3
2019-Jan-05 21:00N 38°06' W 122°18'0 0.0 160 / 91003.5 12.6 7.8
2019-Jan-05 20:00N 38°06' W 122°18'0 0.0 160 / 101004.0 13.9 6.6
2019-Jan-05 19:00N 38°06' W 122°18'0 0.0 140 / 71005.0 10.8 5.4
2019-Jan-05 18:00N 38°06' W 122°18'0 0.0 090 / 151005.8 9.0 4.3
2019-Jan-05 17:00N 38°06' W 122°18'0 0.0 100 / 201004.6 8.1 4.0
2019-Jan-05 16:00N 38°06' W 122°18'0 0.0 120 / 71006.1 7.4 3.5
2019-Jan-05 15:00N 38°06' W 122°18'0 0.0 110 / 91006.6 8.0 3.1
2019-Jan-05 14:00N 38°06' W 122°18'0 0.0 120 / 91006.9 7.8 2.7
2019-Jan-05 13:00N 38°06' W 122°18'0 0.0 120 / 61007.1 8.0 2.7
2019-Jan-05 12:00N 38°06' W 122°18'0 0.0 130 / 81007.9 8.3 3.0
2019-Jan-05 11:00N 38°06' W 122°18'0 0.0 130 / 71008.8 8.0 3.8
2019-Jan-05 10:00N 38°06' W 122°18'0 0.0 130 / 61009.5 7.9 3.7
2019-Jan-05 09:00N 38°06' W 122°18'0 0.0 120 / 61009.8 8.0 3.1
2019-Jan-05 08:00N 38°06' W 122°18'0 0.0 120 / 81010.4 7.9 2.9
2019-Jan-05 07:00N 38°06' W 122°18'0 0.0 100 / 61011.3 8.1 2.7
2019-Jan-05 06:00N 38°06' W 122°18'0 0.0 090 / 41012.0 8.1 3.0
2019-Jan-05 05:00N 38°06' W 122°18'0 0.0 100 / 31012.3 8.6 3.2
2019-Jan-05 04:00N 38°06' W 122°18'0 0.0 100 / 41012.9 8.8 3.2
2019-Jan-05 03:00N 38°06' W 122°18'0 0.0 120 / 61012.7 9.2 2.9
2019-Jan-05 02:00N 38°06' W 122°18'0 0.0 140 / 71012.7 9.7 3.0
2019-Jan-05 01:00N 38°06' W 122°18'0 0.0 140 / 71013.2 10.6 3.1
2019-Jan-05 00:00N 38°06' W 122°18'0 0.0 110 / 81013.4 11.5 2.9
2019-Jan-04 23:00N 38°06' W 122°18'0 0.0 110 / 101014.2 11.6 2.2
2019-Jan-04 22:00N 38°06' W 122°18'0 0.0
2019-Jan-04 21:00N 38°06' W 122°18'0 0.0
2019-Jan-04 20:00N 38°06' W 122°18'0 0.0
2019-Jan-04 19:00N 38°06' W 122°18'0 0.0
2019-Jan-04 18:00N 38°06' W 122°18'0 0.0
2019-Jan-04 17:00N 38°06' W 122°18'  
Track history (hours):
 
Tides and Currents Weather Stations Pressure Air Temp Water Temp Dewpoint Dewpoint Depression Visibility Wind Speed Wind Dir Waves Ship Positions

Oceanographic research ship Atlantis (USA)

Ship's website: http://www.whoi.edu/page.do?pid=8143

Detailed information on ship capabilities available from University of Delaware's Ocean Information Center.

Owner: WOODS HOLE OCEANOGRAPHIC INSTITUTION, WOODS HOLE, MA. More information available from US FCC via Universal Licensing System.

Last reported at 2019-Jan-14 17:00 UTC. Time now 2019-Feb-21 12:05 UTC.
Position N 38°06' W 122°18'.
Warning: this ship's position is 37 days out of date.

Type: Ship. MMSI: 367241000.

Wind from 100 at 15 knots

Barometer 1012.6 mb
Air temperature 9.9 ° C
Dewpoint 4.8 ° C

Date/timePositionNaut miles runAvg speedWind from/ knotsBaromVisibWave heightAir tempDewpointWater temp
2019-Jan-14 17:00N 38°06' W 122°18'0 0.0 100 / 151012.6 9.9 4.8
2019-Jan-14 16:00N 38°06' W 122°18'0 0.0 100 / 171012.5 9.3 5.6
2019-Jan-14 15:00N 38°06' W 122°18'0 0.0 090 / 151012.3 9.6 5.5
2019-Jan-14 14:00N 38°06' W 122°18'0 0.0 110 / 121012.3 10.3 5.5
2019-Jan-14 13:00N 38°06' W 122°18'0 0.0 110 / 91012.4 10.5 5.8
2019-Jan-14 12:00N 38°06' W 122°18'0 0.0 100 / 121013.0 11.4 5.3
2019-Jan-14 11:00N 38°06' W 122°18'0 0.0 130 / 61013.7 11.4 5.0
2019-Jan-14 10:00N 38°06' W 122°18'0 0.0 110 / 111013.6 10.6 5.5
2019-Jan-14 09:00N 38°06' W 122°18'0 0.0 110 / 81013.7 10.8 5.7
2019-Jan-14 08:00N 38°06' W 122°18'0 0.0 110 / 81014.3 10.8 6.5
2019-Jan-14 07:00N 38°06' W 122°18'0 0.0 100 / 101015.0 11.5 6.5
2019-Jan-14 06:00N 38°06' W 122°18'0 0.0 100 / 91015.3 11.4 6.7
2019-Jan-14 05:00N 38°06' W 122°18'0 0.0 100 / 91015.2 11.6 7.1
2019-Jan-14 04:00N 38°06' W 122°18'0 0.0 100 / 141014.8 11.9 7.2
2019-Jan-14 03:00N 38°06' W 122°18'0 0.0 110 / 91014.6 11.9 7.4
2019-Jan-14 02:00N 38°06' W 122°18'0 0.0 100 / 101014.6 12.7 7.4
2019-Jan-14 01:00N 38°06' W 122°18'0 0.0 080 / 111014.5 13.8 7.2
2019-Jan-14 00:00N 38°06' W 122°18'0 0.0 080 / 91014.7 13.9 7.3
2019-Jan-13 23:00N 38°06' W 122°18'0 0.0 100 / 171014.8 14.2 7.1
2019-Jan-13 22:00N 38°06' W 122°18'0 0.0 070 / 91014.8 14.1 6.6
2019-Jan-13 21:00N 38°06' W 122°18'0 0.0 080 / 81015.3 13.9 6.5
2019-Jan-13 20:00N 38°06' W 122°18'0 0.0 080 / 151016.2 13.3 6.9
2019-Jan-13 19:00N 38°06' W 122°18'0 0.0 130 / 71017.5 11.3 7.3
2019-Jan-13 18:00N 38°06' W 122°18'0 0.0 110 / 161017.8 10.6 6.9
2019-Jan-13 17:00N 38°06' W 122°18'0 0.0 120 / 91017.4 10.0 6.7
2019-Jan-13 16:00N 38°06' W 122°18'0 0.0 140 / 71017.0 9.0 6.4
2019-Jan-13 15:00N 38°06' W 122°18'0 0.0 130 / 81017.0 8.3 6.2
2019-Jan-13 14:00N 38°06' W 122°18'0 0.0 130 / 91017.0 9.0 6.7
2019-Jan-13 13:00N 38°06' W 122°18'0 0.0 130 / 71016.5 8.9 6.9
2019-Jan-13 12:00N 38°06' W 122°18'0 0.0 100 / 91017.0 9.0 7.1
2019-Jan-13 11:00N 38°06' W 122°18'0 0.0 120 / 31017.3 8.9 6.9
2019-Jan-13 10:00N 38°06' W 122°18'0 0.0 100 / 41017.9 9.9 7.3
2019-Jan-13 09:00N 38°06' W 122°18'0 0.0 120 / 61017.4 9.5 7.3
2019-Jan-13 08:00N 38°06' W 122°18'0 0.0 120 / 51017.2 10.0 7.6
2019-Jan-13 07:00N 38°06' W 122°18'0 0.0 120 / 31017.4 10.6 8.0
2019-Jan-13 06:00N 38°06' W 122°18'0 0.0 140 / 61017.1 10.9 7.9
2019-Jan-13 05:00N 38°06' W 122°18'0 0.0 120 / 31016.9 11.1 8.0
2019-Jan-13 04:00N 38°06' W 122°18'0 0.0 130 / 31016.7 11.7 8.4
2019-Jan-13 03:00N 38°06' W 122°18'0 0.0 170 / 41016.3 12.2 8.4
2019-Jan-13 02:00N 38°06' W 122°18'0 0.0 110 / 41016.0 12.8 8.6
2019-Jan-13 01:00N 38°06' W 122°18'0 0.0 170 / 81015.6 13.1 8.1
2019-Jan-13 00:00N 38°06' W 122°18'0 0.0 130 / 71014.8 13.8 8.0
2019-Jan-12 23:00N 38°06' W 122°18'0 0.0 100 / 111014.5 14.7 7.6
2019-Jan-12 22:00N 38°06' W 122°18'0 0.0 050 / 111014.3 14.5 8.1
2019-Jan-12 21:00N 38°06' W 122°18'0 0.0 080 / 91014.6 14.2 7.7
2019-Jan-12 20:00N 38°06' W 122°18'0 0.0 110 / 131015.0 13.3 8.2
2019-Jan-12 19:00N 38°06' W 122°18'0 0.0 110 / 91016.1 13.1 7.8
2019-Jan-12 18:00N 38°06' W 122°18'0 0.0 100 / 51016.6 12.3 7.0
2019-Jan-12 17:00N 38°06' W 122°18'0 0.0 120 / 81016.1 11.1 7.2
2019-Jan-12 16:00N 38°06' W 122°18'0 0.0 100 / 31015.3 10.4 6.9
2019-Jan-12 15:00N 38°06' W 122°18'0 0.0 120 / 101015.1 10.6 7.1
2019-Jan-12 14:00N 38°06' W 122°18'0 0.0 110 / 41014.1 10.8 7.1
2019-Jan-12 13:00N 38°06' W 122°18'0 0.0 120 / 91013.5 11.0 7.2
2019-Jan-12 12:00N 38°06' W 122°18'0 0.0 120 / 81013.6 10.6 7.1
2019-Jan-12 11:00N 38°06' W 122°18'0 0.0 130 / 81013.8 10.6 7.3
2019-Jan-12 10:00N 38°06' W 122°18'0 0.0 120 / 91013.7 10.6 7.4
2019-Jan-12 09:00N 38°06' W 122°18'0 0.0 120 / 101013.0 10.5 7.7
2019-Jan-12 08:00N 38°06' W 122°18'0 0.0 130 / 81012.4 10.6 8.0
2019-Jan-12 07:00N 38°06' W 122°18'0 0.0 120 / 51012.8 10.8 8.2
2019-Jan-12 06:00N 38°06' W 122°18'0 0.0 110 / 101012.8 10.8 8.5
2019-Jan-12 05:00N 38°06' W 122°18'0 0.0 120 / 101012.5 11.1 8.6
2019-Jan-12 04:00N 38°06' W 122°18'0 0.0 100 / 41012.1 12.2 8.2
2019-Jan-12 03:00N 38°06' W 122°18'0 0.0 130 / 81011.9 12.0 8.6
2019-Jan-12 02:00N 38°06' W 122°18'0 0.0 080 / 51012.0 12.1 8.9
2019-Jan-12 01:00N 38°06' W 122°18'0 0.0 090 / 71012.2 12.2 9.1
2019-Jan-12 00:00N 38°06' W 122°18'0 0.0 080 / 71012.2 12.4 9.0
2019-Jan-11 23:00N 38°06' W 122°18'0 0.0 060 / 51012.3 12.1 8.9
2019-Jan-11 22:00N 38°06' W 122°18'0 0.0 110 / 111012.1 12.1 8.2
2019-Jan-11 21:00N 38°06' W 122°18'0 0.0 080 / 111012.4 11.6 7.7
2019-Jan-11 20:00N 38°06' W 122°18'0 0.0 090 / 101013.6 10.3 7.5
2019-Jan-11 19:00N 38°06' W 122°18'0 0.0 110 / 121014.5 10.4 7.6
2019-Jan-11 18:00N 38°06' W 122°18'0 0.0 090 / 161015.4 10.1 7.4
2019-Jan-11 17:00N 38°06' W 122°18'0 0.0 100 / 121015.3 10.3 7.9
2019-Jan-11 16:00N 38°06' W 122°18'0 0.0 080 / 171014.9 10.7 8.1
2019-Jan-11 15:00N 38°06' W 122°18'0 0.0 100 / 131014.6 10.4 8.2
2019-Jan-11 14:00N 38°06' W 122°18'0 0.0 070 / 151015.2 10.1 8.3
2019-Jan-11 13:00N 38°06' W 122°18'0 0.0 090 / 131015.5 10.2 8.2
2019-Jan-11 12:00N 38°06' W 122°18'0 0.0 080 / 111015.8 10.3 8.2
2019-Jan-11 11:00N 38°06' W 122°18'0 0.0 080 / 121016.6 10.3 8.3
2019-Jan-11 10:00N 38°06' W 122°18'0 0.0 080 / 101017.3 10.4 8.3
2019-Jan-11 09:00N 38°06' W 122°18'0 0.0 090 / 161016.9 10.7 8.4
2019-Jan-11 08:00N 38°06' W 122°18'0 0.0 090 / 101017.2 10.6 8.4
2019-Jan-11 07:00N 38°06' W 122°18'0 0.0 090 / 101017.7 10.6 8.4
2019-Jan-11 06:00N 38°06' W 122°18'0 0.0 100 / 101018.3 10.3 8.4
2019-Jan-11 05:00N 38°06' W 122°18'0 0.0 080 / 111018.1 9.5 8.1
2019-Jan-11 04:00N 38°06' W 122°18'0 0.0 080 / 171018.2 9.7 8.3
2019-Jan-11 03:00N 38°06' W 122°18'0 0.0 080 / 191018.7 10.0 8.5
2019-Jan-11 02:00N 38°06' W 122°18'0 0.0 110 / 101019.2 10.2 8.5
2019-Jan-11 01:00N 38°06' W 122°18'0 0.0 120 / 91019.3 11.3 8.9
2019-Jan-11 00:00N 38°06' W 122°18'0 0.0 110 / 111019.7 12.2 9.4
2019-Jan-10 23:00N 38°06' W 122°18'0 0.0 140 / 71019.9 12.5 9.5
2019-Jan-10 22:00N 38°06' W 122°18'0 0.0 170 / 41019.9 12.7 9.8
2019-Jan-10 21:00N 38°06' W 122°18'0 0.0 190 / 41020.2 11.6 9.6
2019-Jan-10 20:00N 38°06' W 122°18'0 0.0 310 / 41021.3 11.2 9.4
2019-Jan-10 19:00N 38°06' W 122°18'0 0.0 320 / 21022.3 10.9 9.2
2019-Jan-10 18:00N 38°06' W 122°18'0 0.0 350 / 21023.0 10.4 9.0
2019-Jan-10 17:00N 38°06' W 122°18'0 0.0 040 / 21022.5 9.8 8.5
2019-Jan-10 16:00N 38°06' W 122°18'0 0.0 010 / 11022.4 9.1 7.8
2019-Jan-10 15:00N 38°06' W 122°18'0 0.0 070 / 71021.7 8.9 7.5
2019-Jan-10 14:00N 38°06' W 122°18'0 0.0 090 / 41021.5 10.1 8.7
2019-Jan-10 13:00N 38°06' W 122°18'0 0.0 020 / 21021.8 10.5 9.1
2019-Jan-10 12:00N 38°06' W 122°18'0 0.0 010 / 11022.3 10.5 9.1
2019-Jan-10 11:00N 38°06' W 122°18'0 0.0 140 / 51022.2 10.3 8.8
2019-Jan-10 10:00N 38°06' W 122°18'0 0.0 150 / 41022.2 10.5 8.9
2019-Jan-10 09:00N 38°06' W 122°18'0 0.0 170 / 51021.6 10.0 8.4
2019-Jan-10 08:00N 38°06' W 122°18'0 0.0 280 / 31021.7 10.7 8.8
2019-Jan-10 07:00N 38°06' W 122°18'0 0.0 130 / 21021.7 11.1 9.1
2019-Jan-10 06:00N 38°06' W 122°18'0 0.0 220 / 11022.0 12.0 9.7
2019-Jan-10 05:00N 38°06' W 122°18'0 0.0 280 / 31021.7 11.8 9.5
2019-Jan-10 04:00N 38°06' W 122°18'0 0.0 250 / 31020.5 12.4 9.9
2019-Jan-10 03:00N 38°06' W 122°18'0 0.0 210 / 21020.0 12.8 9.8
2019-Jan-10 02:00N 38°06' W 122°18'0 0.0 200 / 21019.6 13.410.0
2019-Jan-10 01:00N 38°06' W 122°18'0 0.0 160 / 51018.9 13.910.4
2019-Jan-10 00:00N 38°06' W 122°18'0 0.0 220 / 41018.2 14.710.8
2019-Jan-09 23:00N 38°06' W 122°18'0 0.0 170 / 31017.8 14.511.6
2019-Jan-09 22:00N 38°06' W 122°18'0 0.0 200 / 71017.5 14.810.8
2019-Jan-09 21:00N 38°06' W 122°18'0 0.0 190 / 31017.6 14.111.1
2019-Jan-09 20:00N 38°06' W 122°18'0 0.0 180 / 61017.7 15.610.4
2019-Jan-09 19:00N 38°06' W 122°18'0 0.0 170 / 91018.3 15.510.2
2019-Jan-09 18:00N 38°06' W 122°18'0 0.0 150 / 71018.6 14.810.1
2019-Jan-09 17:00N 38°06' W 122°18'0 0.0 130 / 41018.0 13.710.0
2019-Jan-09 16:00N 38°06' W 122°18'0 0.0 140 / 71017.1 13.6 9.7
2019-Jan-09 15:00N 38°06' W 122°18'0 0.0 140 / 81016.1 13.8 9.5
2019-Jan-09 14:00N 38°06' W 122°18'0 0.0 150 / 91015.7 14.1 9.8
2019-Jan-09 13:00N 38°06' W 122°18'0 0.0 150 / 61015.2 14.210.0
2019-Jan-09 12:00N 38°06' W 122°18'0 0.0 150 / 61014.9 14.2 9.9
2019-Jan-09 11:00N 38°06' W 122°18'0 0.0 150 / 71014.9 13.510.2
2019-Jan-09 10:00N 38°06' W 122°18'0 0.0 160 / 121014.2 13.410.0
2019-Jan-09 09:00N 38°06' W 122°18'0 0.0 180 / 111013.3 13.9 9.6
2019-Jan-09 08:00N 38°06' W 122°18'0 0.0 150 / 91012.9 15.0 8.9
2019-Jan-09 07:00N 38°06' W 122°18'0 0.0 140 / 61013.0 14.210.1
2019-Jan-09 06:00N 38°06' W 122°18'0 0.0 120 / 101013.3 12.7 9.9
2019-Jan-09 05:00N 38°06' W 122°18'0 0.0 140 / 71013.1 12.910.0
2019-Jan-09 04:00N 38°06' W 122°18'0 0.0 040 / 21013.6 11.7 9.6
2019-Jan-09 03:00N 38°06' W 122°18'0 0.0 140 / 31013.5 11.7 9.4
2019-Jan-09 02:00N 38°06' W 122°18'0 0.0 100 / 51013.6 11.4 9.2
2019-Jan-09 01:00N 38°06' W 122°18'0 0.0 100 / 81013.3 11.1 9.0
2019-Jan-09 00:00N 38°06' W 122°18'0 0.0 100 / 31013.8 11.3 9.1
2019-Jan-08 23:00N 38°06' W 122°18'0 0.0 120 / 71014.2 11.0 8.7
2019-Jan-08 22:00N 38°06' W 122°18'0 0.0 160 / 91014.6 10.8 8.4
2019-Jan-08 21:00N 38°06' W 122°18'0 0.0
2019-Jan-08 20:00N 38°06' W 122°18'0 0.0
2019-Jan-08 19:00N 38°06' W 122°18'0 0.0
2019-Jan-08 18:00N 38°06' W 122°18'0 0.0 120 / 81018.6 10.4 7.8
2019-Jan-08 17:00N 38°06' W 122°18'0 0.0 090 / 151018.2 10.0 7.2
2019-Jan-08 16:00N 38°06' W 122°18'0 0.0 100 / 131017.6 10.1 6.8
2019-Jan-08 15:00N 38°06' W 122°18'0 0.0 100 / 141017.5 10.1 6.5
2019-Jan-08 14:00N 38°06' W 122°18'0 0.0 110 / 141017.2 9.9 6.5
2019-Jan-08 13:00N 38°06' W 122°18'0 0.0 130 / 91017.2 9.8 6.5
2019-Jan-08 12:00N 38°06' W 122°18'0 0.0 100 / 151017.5 9.5 6.4
2019-Jan-08 11:00N 38°06' W 122°18'0 0.0 120 / 91018.5 9.7 6.6
2019-Jan-08 10:00N 38°06' W 122°18'0 0.0 120 / 91019.2 9.8 6.8
2019-Jan-08 09:00N 38°06' W 122°18'0 0.0 100 / 121018.8 10.0 6.9
2019-Jan-08 08:00N 38°06' W 122°18'0 0.0 100 / 151019.2 10.0 7.0
2019-Jan-08 07:00N 38°06' W 122°18'0 0.0 110 / 101020.3 10.2 7.3
2019-Jan-08 06:00N 38°06' W 122°18'0 0.0 110 / 111020.6 10.4 7.6
2019-Jan-08 05:00N 38°06' W 122°18'0 0.0 100 / 121020.7 10.9 7.9
2019-Jan-08 04:00N 38°06' W 122°18'0 0.0 110 / 101021.2 11.9 8.3
2019-Jan-08 03:00N 38°06' W 122°18'0 0.0 110 / 81021.1 12.8 8.4
2019-Jan-08 02:00N 38°06' W 122°18'0 0.0 110 / 91020.9 12.9 8.4
2019-Jan-08 01:00N 38°06' W 122°18'0 0.0 120 / 61021.2 13.3 8.9
2019-Jan-08 00:00N 38°06' W 122°18'0 0.0 090 / 51020.8 13.7 8.8
2019-Jan-07 23:00N 38°06' W 122°18'0 0.0 120 / 61020.7 13.9 8.4
2019-Jan-07 22:00N 38°06' W 122°18'0 0.0 110 / 41020.6 13.5 7.9
2019-Jan-07 21:00N 38°06' W 122°18'0 0.0 140 / 51020.3 13.0 8.1
2019-Jan-07 20:00N 38°06' W 122°18'0 0.0 010 / 21020.9 12.3 7.0
2019-Jan-07 19:00N 38°06' W 122°18'0 0.0 330 / 21022.0 11.0 7.4
2019-Jan-07 18:00N 38°06' W 122°18'0 0.0 260 / 31022.1 9.7 7.3
2019-Jan-07 17:00N 38°06' W 122°18'0 0.0 300 / 51021.6 9.0 6.8
2019-Jan-07 16:00N 38°06' W 122°18'0 0.0 270 / 31020.8 9.8 7.4
2019-Jan-07 15:00N 38°06' W 122°18'0 0.0 120 / 51020.2 9.5 7.2
2019-Jan-07 14:00N 38°06' W 122°18'0 0.0 100 / 41019.5 9.3 6.9
2019-Jan-07 13:00N 38°06' W 122°18'0 0.0 290 / 51018.6 9.6 6.9
2019-Jan-07 12:00N 38°06' W 122°18'0 0.0 020 / 21018.1 9.4 6.6
2019-Jan-07 11:00N 38°06' W 122°18'0 0.0 250 / 91017.4 10.2 6.8
2019-Jan-07 10:00N 38°06' W 122°18'0 0.0 230 / 51016.7 10.3 7.2
2019-Jan-07 09:00N 38°06' W 122°18'0 0.0 220 / 41014.7 9.6 7.4
2019-Jan-07 08:00N 38°06' W 122°18'0 0.0 260 / 51013.2 9.4 7.2
2019-Jan-07 07:00N 38°06' W 122°18'0 0.0 240 / 41011.4 9.6 7.8
2019-Jan-07 06:00N 38°06' W 122°18'0 0.0 310 / 71009.8 12.610.2
2019-Jan-07 05:00N 38°06' W 122°18'0 0.0 200 / 111007.9 13.511.5
2019-Jan-07 04:00N 38°06' W 122°18'0 0.0 180 / 111006.3 13.911.6
2019-Jan-07 03:00N 38°06' W 122°18'0 0.0 200 / 111005.6 13.611.5
2019-Jan-07 02:00N 38°06' W 122°18'0 0.0 190 / 101005.2 12.310.0
2019-Jan-07 01:00N 38°06' W 122°18'0 0.0 160 / 51004.9 10.7 8.3
2019-Jan-07 00:00N 38°06' W 122°18'0 0.0 150 / 151005.8 11.2 7.8
2019-Jan-06 23:00N 38°06' W 122°18'0 0.0 160 / 101007.2 11.0 7.8
2019-Jan-06 22:00N 38°06' W 122°18'0 0.0 170 / 101008.5 11.1 7.9
2019-Jan-06 21:00N 38°06' W 122°18'0 0.0 180 / 111008.7 11.1 7.5
2019-Jan-06 20:00N 38°06' W 122°18'0 0.0 140 / 111010.1 10.4 7.1
2019-Jan-06 19:00N 38°06' W 122°18'0 0.0 130 / 91011.6 10.5 7.3
2019-Jan-06 18:00N 38°06' W 122°18'0 0.0 130 / 51012.9 10.2 7.1
2019-Jan-06 17:00N 38°06' W 122°18'0 0.0 140 / 61012.7 10.5 6.6
2019-Jan-06 16:00N 38°06' W 122°18'0 0.0 150 / 91012.4 10.6 6.0
2019-Jan-06 15:00N 38°06' W 122°18'0 0.0 140 / 61012.3 10.9 5.9
2019-Jan-06 14:00N 38°06' W 122°18'0 0.0 120 / 91012.3 9.6 6.3
2019-Jan-06 13:00N 38°06' W 122°18'0 0.0 140 / 71012.6 9.1 6.4
2019-Jan-06 12:00N 38°06' W 122°18'0 0.0 130 / 61012.6 8.8 6.1
2019-Jan-06 11:00N 38°06' W 122°18'0 0.0 130 / 51012.8 8.2 5.9
2019-Jan-06 10:00N 38°06' W 122°18'0 0.0 140 / 41012.9 8.7 5.8
2019-Jan-06 09:00N 38°06' W 122°18'0 0.0 180 / 21012.6 8.9 5.7
2019-Jan-06 08:00N 38°06' W 122°18'0 0.0 140 / 21012.2 9.9 7.0
2019-Jan-06 07:00N 38°06' W 122°18'0 0.0 190 / 11012.2 9.9 7.1
2019-Jan-06 06:00N 38°06' W 122°18'0 0.0 180 / 31011.8 9.8 7.2
2019-Jan-06 05:00N 38°06' W 122°18'0 0.0 180 / 41011.3 10.4 7.0
2019-Jan-06 04:00N 38°06' W 122°18'0 0.0 180 / 91010.2 10.9 7.3
2019-Jan-06 03:00N 38°06' W 122°18'0 0.0 240 / 61009.3 11.1 7.1
2019-Jan-06 02:00N 38°06' W 122°18'0 0.0 210 / 61008.2 11.1 7.5
2019-Jan-06 01:00N 38°06' W 122°18'0 0.0 260 / 61006.8 11.2 7.8
2019-Jan-06 00:00N 38°06' W 122°18'0 0.0 230 / 61005.5 12.4 7.9
2019-Jan-05 23:00N 38°06' W 122°18'0 0.0 200 / 121004.0 12.6 8.7
2019-Jan-05 22:00N 38°06' W 122°18'0 0.0 200 / 101004.0 12.2 8.3
2019-Jan-05 21:00N 38°06' W 122°18'0 0.0 160 / 91003.5 12.6 7.8
2019-Jan-05 20:00N 38°06' W 122°18'0 0.0 160 / 101004.0 13.9 6.6
2019-Jan-05 19:00N 38°06' W 122°18'0 0.0 140 / 71005.0 10.8 5.4
2019-Jan-05 18:00N 38°06' W 122°18'0 0.0 090 / 151005.8 9.0 4.3
2019-Jan-05 17:00N 38°06' W 122°18'0 0.0 100 / 201004.6 8.1 4.0
2019-Jan-05 16:00N 38°06' W 122°18'0 0.0 120 / 71006.1 7.4 3.5
2019-Jan-05 15:00N 38°06' W 122°18'0 0.0 110 / 91006.6 8.0 3.1
2019-Jan-05 14:00N 38°06' W 122°18'0 0.0 120 / 91006.9 7.8 2.7
2019-Jan-05 13:00N 38°06' W 122°18'0 0.0 120 / 61007.1 8.0 2.7
2019-Jan-05 12:00N 38°06' W 122°18'0 0.0 130 / 81007.9 8.3 3.0
2019-Jan-05 11:00N 38°06' W 122°18'0 0.0 130 / 71008.8 8.0 3.8
2019-Jan-05 10:00N 38°06' W 122°18'0 0.0 130 / 61009.5 7.9 3.7
2019-Jan-05 09:00N 38°06' W 122°18'0 0.0 120 / 61009.8 8.0 3.1
2019-Jan-05 08:00N 38°06' W 122°18'0 0.0 120 / 81010.4 7.9 2.9
2019-Jan-05 07:00N 38°06' W 122°18'0 0.0 100 / 61011.3 8.1 2.7
2019-Jan-05 06:00N 38°06' W 122°18'0 0.0 090 / 41012.0 8.1 3.0
2019-Jan-05 05:00N 38°06' W 122°18'0 0.0 100 / 31012.3 8.6 3.2
2019-Jan-05 04:00N 38°06' W 122°18'0 0.0 100 / 41012.9 8.8 3.2
2019-Jan-05 03:00N 38°06' W 122°18'0 0.0 120 / 61012.7 9.2 2.9
2019-Jan-05 02:00N 38°06' W 122°18'0 0.0 140 / 71012.7 9.7 3.0
2019-Jan-05 01:00N 38°06' W 122°18'0 0.0 140 / 71013.2 10.6 3.1
2019-Jan-05 00:00N 38°06' W 122°18'0 0.0 110 / 81013.4 11.5 2.9
2019-Jan-04 23:00N 38°06' W 122°18'0 0.0 110 / 101014.2 11.6 2.2
2019-Jan-04 22:00N 38°06' W 122°18'0 0.0
2019-Jan-04 21:00N 38°06' W 122°18'0 0.0
2019-Jan-04 20:00N 38°06' W 122°18'0 0.0
2019-Jan-04 19:00N 38°06' W 122°18'0 0.0
2019-Jan-04 18:00N 38°06' W 122°18'0 0.0
2019-Jan-04 17:00N 38°06' W 122°18'  

Dump ship's entire track history